createdAt,value
2018-05-10T00:00:39.167Z,11.00
2018-05-10T00:03:07.703Z,11.00
2018-05-10T00:05:36.121Z,11.00
2018-05-10T00:08:04.503Z,11.00
2018-05-10T00:10:32.930Z,11.00
2018-05-10T00:13:02.269Z,11.10
2018-05-10T00:15:31.562Z,11.20
2018-05-10T00:17:59.919Z,11.20
2018-05-10T00:20:28.295Z,11.30
2018-05-10T00:22:56.850Z,11.40
2018-05-10T00:25:26.207Z,11.50
2018-05-10T00:27:55.548Z,11.60
2018-05-10T00:30:23.934Z,11.60
2018-05-10T00:32:53.091Z,11.70
2018-05-10T00:35:21.485Z,11.70
2018-05-10T00:37:49.876Z,11.70
2018-05-10T00:40:19.441Z,11.80
2018-05-10T00:42:47.854Z,11.80
2018-05-10T00:45:17.067Z,11.70
2018-05-10T00:47:45.494Z,11.70
2018-05-10T00:50:15.358Z,11.70
2018-05-10T00:52:43.739Z,11.70
2018-05-10T00:55:12.921Z,11.70
2018-05-10T00:57:42.064Z,11.70
2018-05-10T01:00:10.463Z,11.60
2018-05-10T01:02:38.999Z,11.70
2018-05-10T01:05:08.132Z,11.60
2018-05-10T01:07:36.556Z,11.70
2018-05-10T01:10:05.099Z,11.70
2018-05-10T01:12:33.459Z,11.70
2018-05-10T01:15:02.812Z,11.70
2018-05-10T01:17:32.003Z,11.80
2018-05-10T01:20:00.397Z,11.80
2018-05-10T01:22:28.955Z,11.80
2018-05-10T01:24:57.359Z,11.90
2018-05-10T01:27:26.281Z,11.90
2018-05-10T01:29:54.746Z,11.90
2018-05-10T01:32:23.941Z,12.00
2018-05-10T01:35:04.228Z,12.00
2018-05-10T01:37:33.372Z,12.00
2018-05-10T01:40:01.734Z,12.00
2018-05-10T01:42:30.871Z,11.90
2018-05-10T01:45:00.047Z,11.90
2018-05-10T01:47:28.448Z,11.90
2018-05-10T01:49:57.751Z,12.00
2018-05-10T01:52:26.919Z,12.00
2018-05-10T01:54:55.339Z,12.00
2018-05-10T01:57:23.747Z,12.00
2018-05-10T01:59:53.795Z,12.10
2018-05-10T02:02:22.290Z,12.10
2018-05-10T02:04:50.691Z,12.30
2018-05-10T02:07:19.135Z,12.10
2018-05-10T02:09:47.724Z,12.20
2018-05-10T02:12:16.267Z,12.20
2018-05-10T02:14:44.679Z,12.20
2018-05-10T02:17:13.092Z,12.20
2018-05-10T02:19:41.525Z,12.20
2018-05-10T02:22:10.851Z,12.30
2018-05-10T02:24:40.175Z,12.20
2018-05-10T02:27:09.343Z,12.20
2018-05-10T02:29:38.713Z,12.20
2018-05-10T02:32:07.308Z,12.20
2018-05-10T02:34:36.487Z,12.10
2018-05-10T02:37:04.907Z,12.10
2018-05-10T02:39:33.331Z,12.20
2018-05-10T02:42:01.748Z,12.10
2018-05-10T02:44:30.230Z,12.10
2018-05-10T02:46:58.615Z,12.20
2018-05-10T02:49:27.115Z,12.20
2018-05-10T02:51:55.656Z,12.10
2018-05-10T02:54:24.035Z,12.20
2018-05-10T02:56:52.441Z,12.20
2018-05-10T02:59:20.823Z,12.30
2018-05-10T03:01:50.099Z,12.30
2018-05-10T03:04:19.327Z,12.40
2018-05-10T03:06:47.714Z,12.40
2018-05-10T03:09:16.175Z,12.40
2018-05-10T03:11:45.534Z,12.50
2018-05-10T03:14:14.683Z,12.50
2018-05-10T03:16:43.062Z,12.40
2018-05-10T03:19:12.822Z,12.50
2018-05-10T03:21:41.967Z,12.30
2018-05-10T03:24:10.379Z,12.30
2018-05-10T03:26:38.914Z,12.30
2018-05-10T03:29:08.056Z,12.20
2018-05-10T03:31:36.441Z,12.20
2018-05-10T03:34:04.832Z,12.20
2018-05-10T03:36:34.035Z,12.10
2018-05-10T03:39:02.409Z,12.10
2018-05-10T03:41:31.899Z,12.20
2018-05-10T03:44:00.309Z,12.20
2018-05-10T03:46:29.579Z,12.10
2018-05-10T03:48:57.951Z,12.10
2018-05-10T03:51:27.234Z,12.10
2018-05-10T03:53:55.675Z,12.10
2018-05-10T03:56:24.964Z,12.10
2018-05-10T03:58:54.090Z,12.20
2018-05-10T04:01:22.505Z,12.20
2018-05-10T04:04:02.813Z,12.30
2018-05-10T04:06:43.119Z,12.30
2018-05-10T04:09:23.404Z,12.40
2018-05-10T04:11:51.767Z,12.40
2018-05-10T04:14:20.164Z,12.50
2018-05-10T04:16:48.539Z,12.50
2018-05-10T04:19:17.723Z,12.80
2018-05-10T04:21:46.158Z,12.70
2018-05-10T04:24:14.523Z,12.80
2018-05-10T04:26:42.906Z,12.80
2018-05-10T04:29:12.256Z,12.90
2018-05-10T04:31:40.624Z,12.90
2018-05-10T04:34:09.006Z,13.10
2018-05-10T04:36:38.335Z,13.30
2018-05-10T04:39:06.724Z,13.30
2018-05-10T04:41:35.103Z,13.50
2018-05-10T04:44:03.471Z,13.60
2018-05-10T04:46:31.866Z,13.80
2018-05-10T04:49:00.255Z,13.90
2018-05-10T04:51:30.035Z,14.20
2018-05-10T04:53:58.439Z,14.20
2018-05-10T04:56:28.787Z,14.40
2018-05-10T04:58:57.157Z,14.40
2018-05-10T05:01:25.533Z,14.60
2018-05-10T05:03:53.975Z,14.70
2018-05-10T05:06:22.328Z,14.70
2018-05-10T05:08:50.713Z,14.70
2018-05-10T05:11:19.096Z,14.80
2018-05-10T05:13:47.587Z,14.90
2018-05-10T05:16:16.134Z,15.00
2018-05-10T05:18:44.532Z,15.10
2018-05-10T05:21:13.120Z,15.10
2018-05-10T05:23:41.491Z,15.10
2018-05-10T05:26:09.879Z,15.30
2018-05-10T05:28:38.327Z,15.30
2018-05-10T05:31:07.127Z,15.40
2018-05-10T05:33:35.534Z,15.50
2018-05-10T05:36:04.867Z,15.80
2018-05-10T05:38:33.231Z,15.80
2018-05-10T05:41:01.671Z,15.90
2018-05-10T05:43:30.151Z,16.00
2018-05-10T05:45:58.459Z,16.10
2018-05-10T05:48:27.607Z,16.60
2018-05-10T05:50:56.754Z,16.80
2018-05-10T05:53:25.184Z,16.70
2018-05-10T05:55:53.571Z,17.00
2018-05-10T05:58:22.792Z,17.30
2018-05-10T06:00:51.277Z,17.50
2018-05-10T06:03:21.536Z,17.90
2018-05-10T06:05:49.943Z,17.90
2018-05-10T06:08:18.339Z,18.10
2018-05-10T06:10:47.475Z,18.30
2018-05-10T06:13:16.011Z,18.50
2018-05-10T06:15:44.965Z,18.80
2018-05-10T06:18:13.310Z,19.00
2018-05-10T06:20:42.615Z,19.60
2018-05-10T06:23:11.838Z,20.00
2018-05-10T06:25:40.227Z,20.00
2018-05-10T06:28:08.604Z,20.60
2018-05-10T06:30:37.043Z,21.20
2018-05-10T06:33:06.424Z,22.00
2018-05-10T06:35:34.949Z,22.90
2018-05-10T06:38:03.343Z,23.80
2018-05-10T06:40:32.687Z,25.30
2018-05-10T06:43:01.931Z,26.00
2018-05-10T06:45:30.309Z,25.90
2018-05-10T06:47:58.719Z,26.60
2018-05-10T06:50:27.076Z,27.20
2018-05-10T06:52:55.638Z,27.90
2018-05-10T06:55:24.886Z,28.90
2018-05-10T06:57:53.283Z,28.90
2018-05-10T07:00:21.733Z,29.20
2018-05-10T07:02:50.270Z,29.20
2018-05-10T07:05:18.832Z,29.40
2018-05-10T07:07:47.340Z,29.30
2018-05-10T07:10:16.512Z,29.00
2018-05-10T07:12:45.339Z,29.00
2018-05-10T07:15:14.067Z,28.70
2018-05-10T07:17:42.484Z,28.10
2018-05-10T07:20:10.890Z,27.90
2018-05-10T07:22:40.210Z,27.90
2018-05-10T07:25:08.636Z,27.90
2018-05-10T07:27:37.050Z,28.30
2018-05-10T07:30:05.435Z,28.70
2018-05-10T07:32:34.719Z,28.60
2018-05-10T07:35:05.107Z,29.00
2018-05-10T07:37:33.647Z,29.00
2018-05-10T07:40:02.039Z,29.40
2018-05-10T07:42:30.451Z,30.00
2018-05-10T07:45:00.151Z,30.50
2018-05-10T07:47:28.557Z,30.60
2018-05-10T07:49:56.930Z,30.90
2018-05-10T07:52:25.335Z,31.10
2018-05-10T07:54:53.875Z,31.30
2018-05-10T07:57:22.309Z,31.20
2018-05-10T07:59:50.663Z,31.60
2018-05-10T08:02:19.071Z,32.00
2018-05-10T08:04:47.447Z,32.10
2018-05-10T08:07:15.832Z,32.10
2018-05-10T08:09:44.198Z,31.50
2018-05-10T08:12:12.567Z,30.80
2018-05-10T08:14:41.992Z,30.10
2018-05-10T08:17:10.545Z,30.10
2018-05-10T08:19:39.863Z,29.80
2018-05-10T08:22:09.068Z,29.30
2018-05-10T08:24:37.443Z,29.20
2018-05-10T08:27:05.875Z,29.20
2018-05-10T08:29:34.238Z,29.50
2018-05-10T08:32:02.780Z,29.70
2018-05-10T08:34:31.935Z,29.40
2018-05-10T08:37:01.400Z,29.40
2018-05-10T08:39:29.803Z,29.60
2018-05-10T08:41:58.179Z,29.70
2018-05-10T08:44:26.600Z,29.50
2018-05-10T08:46:55.025Z,29.20
2018-05-10T08:49:24.155Z,28.90
2018-05-10T08:51:52.635Z,28.90
2018-05-10T08:54:22.160Z,28.60
2018-05-10T08:56:51.382Z,28.50
2018-05-10T08:59:21.423Z,28.50
2018-05-10T09:01:49.843Z,28.30
2018-05-10T09:04:18.219Z,28.20
2018-05-10T09:06:47.378Z,28.20
2018-05-10T09:09:15.755Z,28.20
2018-05-10T09:11:44.179Z,28.10
2018-05-10T09:14:12.536Z,28.00
2018-05-10T09:16:40.927Z,27.90
2018-05-10T09:19:10.042Z,26.70
2018-05-10T09:21:38.456Z,26.60
2018-05-10T09:24:06.822Z,26.30
2018-05-10T09:26:35.959Z,26.00
2018-05-10T09:29:04.343Z,25.90
2018-05-10T09:31:32.813Z,25.80
2018-05-10T09:34:01.183Z,25.80
2018-05-10T09:36:29.559Z,25.80
2018-05-10T09:38:59.219Z,26.00
2018-05-10T09:41:27.656Z,25.90
2018-05-10T09:43:56.090Z,26.20
2018-05-10T09:46:24.506Z,26.30
2018-05-10T09:48:53.705Z,26.00
2018-05-10T09:51:22.891Z,26.20
2018-05-10T09:53:51.295Z,26.30
2018-05-10T09:56:19.852Z,26.30
2018-05-10T09:58:48.235Z,26.40
2018-05-10T10:01:18.404Z,26.40
2018-05-10T10:03:46.755Z,26.30
2018-05-10T10:06:15.215Z,26.20
2018-05-10T10:08:43.574Z,26.10
2018-05-10T10:11:12.703Z,25.80
2018-05-10T10:13:41.075Z,25.80
2018-05-10T10:16:10.381Z,25.30
2018-05-10T10:18:38.802Z,25.30
2018-05-10T10:21:07.203Z,25.20
2018-05-10T10:23:35.629Z,24.80
2018-05-10T10:26:04.070Z,24.70
2018-05-10T10:28:32.468Z,24.60
2018-05-10T10:31:00.902Z,24.50
2018-05-10T10:33:29.392Z,24.40
2018-05-10T10:35:57.810Z,24.40
2018-05-10T10:41:10.907Z,24.80
2018-05-10T10:43:39.311Z,24.70
2018-05-10T10:46:07.693Z,24.70
2018-05-10T10:48:36.116Z,24.70
2018-05-10T10:51:05.256Z,24.70
2018-05-10T10:53:33.695Z,24.80
2018-05-10T10:56:02.885Z,25.10
2018-05-10T10:58:31.340Z,25.10
2018-05-10T11:00:59.899Z,25.20
2018-05-10T11:03:28.406Z,25.10
2018-05-10T11:05:57.616Z,24.90
2018-05-10T11:08:27.694Z,25.10
2018-05-10T11:10:56.844Z,25.20
2018-05-10T11:13:26.240Z,25.20
2018-05-10T11:15:54.619Z,25.20
2018-05-10T11:18:22.998Z,25.30
2018-05-10T11:20:51.593Z,25.30
2018-05-10T11:23:22.111Z,25.40
2018-05-10T11:25:50.522Z,25.50
2018-05-10T11:28:19.739Z,25.50
2018-05-10T11:30:48.226Z,25.40
2018-05-10T11:33:16.665Z,25.50
2018-05-10T11:35:46.187Z,25.50
2018-05-10T11:38:14.621Z,25.50
2018-05-10T11:40:43.020Z,25.60
2018-05-10T11:43:11.466Z,25.60
2018-05-10T11:45:40.679Z,25.60
2018-05-10T11:48:09.564Z,25.60
2018-05-10T11:50:37.955Z,25.60
2018-05-10T11:53:06.523Z,25.60
2018-05-10T11:55:35.032Z,25.60
2018-05-10T11:58:05.131Z,25.70
2018-05-10T12:00:33.531Z,25.70
2018-05-10T12:03:02.139Z,25.90
2018-05-10T12:05:32.379Z,25.80
2018-05-10T12:08:01.685Z,25.40
2018-05-10T12:10:30.848Z,25.40
2018-05-10T12:13:02.743Z,25.40
2018-05-10T12:15:31.242Z,25.40
2018-05-10T12:18:00.412Z,25.20
2018-05-10T12:20:29.522Z,25.20
2018-05-10T12:22:58.040Z,25.40
2018-05-10T12:25:26.691Z,25.50
2018-05-10T12:27:55.892Z,25.50
2018-05-10T12:30:24.367Z,25.50
2018-05-10T12:32:53.704Z,25.20
2018-05-10T12:35:24.855Z,25.20
2018-05-10T12:37:53.383Z,25.20
2018-05-10T12:40:21.766Z,25.30
2018-05-10T12:42:51.512Z,25.40
2018-05-10T12:45:20.102Z,25.40
2018-05-10T12:47:48.560Z,25.50
2018-05-10T12:50:16.974Z,25.50
2018-05-10T12:52:46.152Z,25.50
2018-05-10T12:55:14.536Z,25.50
2018-05-10T12:57:43.766Z,25.40
2018-05-10T13:00:12.167Z,25.40
2018-05-10T13:02:41.333Z,25.50
2018-05-10T13:05:10.119Z,25.40
2018-05-10T13:07:38.488Z,25.60
2018-05-10T13:10:07.823Z,25.50
2018-05-10T13:12:36.185Z,25.50
2018-05-10T13:15:04.631Z,25.50
2018-05-10T13:17:33.792Z,25.50
2018-05-10T13:20:03.554Z,25.50
2018-05-10T13:22:32.148Z,25.40
2018-05-10T13:25:01.299Z,25.40
2018-05-10T13:27:30.085Z,25.40
2018-05-10T13:29:58.463Z,25.40
2018-05-10T13:32:27.515Z,25.30
2018-05-10T13:34:56.683Z,25.40
2018-05-10T13:37:25.883Z,25.40
2018-05-10T13:39:54.325Z,25.40
2018-05-10T13:42:23.896Z,25.70
2018-05-10T13:44:52.287Z,25.70
2018-05-10T13:47:20.925Z,25.80
2018-05-10T13:49:49.197Z,25.60
2018-05-10T13:52:17.614Z,25.60
2018-05-10T13:54:45.972Z,25.50
2018-05-10T13:57:14.399Z,25.40
2018-05-10T13:59:42.772Z,25.50
2018-05-10T14:02:11.165Z,25.60
2018-05-10T14:04:39.660Z,25.60
2018-05-10T14:07:08.936Z,25.40
2018-05-10T14:09:37.366Z,25.40
2018-05-10T14:12:07.251Z,25.40
2018-05-10T14:14:35.669Z,25.40
2018-05-10T14:17:04.823Z,25.60
2018-05-10T14:19:33.216Z,25.60
2018-05-10T14:22:01.659Z,25.60
2018-05-10T14:24:30.040Z,25.50
2018-05-10T14:26:59.746Z,25.40
2018-05-10T14:29:28.149Z,25.50
2018-05-10T14:31:56.545Z,25.60
2018-05-10T14:34:24.989Z,25.60
2018-05-10T14:36:53.411Z,25.60
2018-05-10T14:39:21.839Z,25.60
2018-05-10T14:41:50.220Z,25.50
2018-05-10T14:44:18.607Z,25.40
2018-05-10T14:46:47.858Z,25.40
2018-05-10T14:49:20.800Z,25.40
2018-05-10T14:51:49.974Z,25.30
2018-05-10T14:54:18.362Z,25.30
2018-05-10T14:56:46.951Z,25.30
2018-05-10T14:59:15.361Z,25.30
2018-05-10T15:01:43.776Z,25.20
2018-05-10T15:04:12.931Z,25.10
2018-05-10T15:06:41.364Z,25.10
2018-05-10T15:09:09.764Z,25.10
2018-05-10T15:11:39.528Z,25.00
2018-05-10T15:14:07.923Z,25.00
2018-05-10T15:16:37.116Z,25.00
2018-05-10T15:19:05.513Z,25.00
2018-05-10T15:21:33.967Z,25.00
2018-05-10T15:24:02.362Z,25.00
2018-05-10T15:26:30.760Z,24.90
2018-05-10T15:28:59.220Z,24.70
2018-05-10T15:31:27.635Z,24.60
2018-05-10T15:33:56.079Z,24.70
2018-05-10T15:36:26.797Z,24.60
2018-05-10T15:38:55.204Z,24.60
2018-05-10T15:41:24.484Z,24.50
2018-05-10T15:43:52.872Z,24.50
2018-05-10T15:46:21.280Z,24.50
2018-05-10T15:48:49.715Z,24.40
2018-05-10T15:51:18.117Z,24.50
2018-05-10T15:53:46.491Z,24.40
2018-05-10T15:56:15.683Z,24.40
2018-05-10T15:58:45.792Z,24.30
2018-05-10T16:01:14.244Z,24.30
2018-05-10T16:03:42.633Z,24.30
2018-05-10T16:06:11.029Z,24.30
2018-05-10T16:08:39.428Z,24.30
2018-05-10T16:11:07.846Z,24.30
2018-05-10T16:13:37.186Z,24.20
2018-05-10T16:16:05.672Z,24.20
2018-05-10T16:18:34.069Z,24.10
2018-05-10T16:21:02.525Z,24.00
2018-05-10T16:23:31.091Z,24.00
2018-05-10T16:26:00.406Z,23.80
2018-05-10T16:28:29.795Z,23.70
2018-05-10T16:30:58.395Z,23.70
2018-05-10T16:33:26.884Z,23.70
2018-05-10T16:35:55.300Z,23.70
2018-05-10T16:38:25.299Z,23.60
2018-05-10T16:40:55.360Z,23.60
2018-05-10T16:43:23.800Z,23.40
2018-05-10T16:45:52.257Z,23.30
2018-05-10T16:48:20.675Z,23.20
2018-05-10T16:50:49.095Z,23.20
2018-05-10T16:53:17.513Z,23.10
2018-05-10T16:55:46.074Z,23.10
2018-05-10T16:58:14.567Z,23.10
2018-05-10T17:00:44.027Z,23.10
2018-05-10T17:03:12.459Z,23.00
2018-05-10T17:05:42.624Z,22.90
2018-05-10T17:08:11.071Z,22.90
2018-05-10T17:10:39.439Z,22.90
2018-05-10T17:13:07.987Z,22.90
2018-05-10T17:15:36.411Z,23.00
2018-05-10T17:18:04.836Z,22.90
2018-05-10T17:20:33.259Z,22.80
2018-05-10T17:25:45.413Z,22.80
2018-05-10T17:28:13.991Z,22.70
2018-05-10T17:30:42.431Z,22.70
2018-05-10T17:33:12.664Z,22.50
2018-05-10T17:35:42.020Z,22.50
2018-05-10T17:38:10.415Z,22.40
2018-05-10T17:40:38.843Z,22.40
2018-05-10T17:43:07.231Z,22.50
2018-05-10T17:45:35.675Z,22.50
2018-05-10T17:48:04.243Z,22.60
2018-05-10T17:50:32.683Z,22.70
2018-05-10T17:53:01.219Z,22.60
2018-05-10T17:55:30.369Z,22.30
2018-05-10T17:57:58.796Z,22.30
2018-05-10T18:00:27.964Z,22.00
2018-05-10T18:02:56.583Z,22.00
2018-05-10T18:05:24.961Z,21.90
2018-05-10T18:07:54.181Z,21.90
2018-05-10T18:10:23.372Z,21.90
2018-05-10T18:12:51.779Z,21.90
2018-05-10T18:15:20.936Z,21.70
2018-05-10T18:17:51.050Z,21.70
2018-05-10T18:20:19.448Z,21.70
2018-05-10T18:22:48.674Z,21.50
2018-05-10T18:25:17.120Z,21.50
2018-05-10T18:27:45.554Z,21.60
2018-05-10T18:30:14.002Z,21.60
2018-05-10T18:32:43.290Z,21.60
2018-05-10T18:35:11.663Z,21.60
2018-05-10T18:37:40.091Z,21.40
2018-05-10T18:40:10.232Z,21.30
2018-05-10T18:42:38.707Z,21.30
2018-05-10T18:45:07.251Z,21.10
2018-05-10T18:47:36.613Z,21.10
2018-05-10T18:50:05.772Z,21.00
2018-05-10T18:52:34.239Z,21.00
2018-05-10T18:55:03.448Z,21.10
2018-05-10T18:57:31.911Z,21.00
2018-05-10T19:00:01.861Z,20.80
2018-05-10T19:02:32.704Z,20.80
2018-05-10T19:05:01.995Z,20.80
2018-05-10T19:07:30.406Z,20.80
2018-05-10T19:09:58.783Z,20.80
2018-05-10T19:12:27.164Z,20.70
2018-05-10T19:14:55.574Z,20.70
2018-05-10T19:17:24.012Z,20.70
2018-05-10T19:19:52.924Z,20.60
2018-05-10T19:22:21.324Z,20.70
2018-05-10T19:24:49.715Z,20.70
2018-05-10T19:27:18.905Z,20.70
2018-05-10T19:29:47.335Z,20.70
2018-05-10T19:32:16.502Z,20.80
2018-05-10T19:34:44.927Z,20.70
2018-05-10T19:37:13.331Z,20.80
2018-05-10T19:39:41.767Z,20.80
2018-05-10T19:42:10.155Z,20.70
2018-05-10T19:44:38.525Z,20.60
2018-05-10T19:47:08.936Z,20.70
2018-05-10T19:49:40.044Z,20.60
2018-05-10T19:52:09.209Z,20.40
2018-05-10T19:54:39.116Z,20.40
2018-05-10T19:57:08.281Z,20.40
2018-05-10T19:59:36.700Z,20.40
2018-05-10T20:02:05.070Z,20.30
2018-05-10T20:04:33.479Z,20.20
2018-05-10T20:07:02.995Z,19.60
2018-05-10T20:09:31.451Z,19.60
2018-05-10T20:12:00.323Z,19.40
2018-05-10T20:14:29.555Z,19.40
2018-05-10T20:16:58.116Z,19.40
2018-05-10T20:19:26.426Z,19.40
2018-05-10T20:21:54.896Z,19.50
2018-05-10T20:24:23.263Z,19.50
2018-05-10T20:26:51.609Z,19.50
2018-05-10T20:29:20.044Z,19.50
2018-05-10T20:31:49.363Z,19.50
2018-05-10T20:34:18.032Z,19.50
2018-05-10T20:36:47.342Z,19.50
2018-05-10T20:39:15.994Z,19.40
2018-05-10T20:41:44.567Z,19.40
2018-05-10T20:44:13.022Z,19.30
2018-05-10T20:46:41.396Z,19.30
2018-05-10T20:49:10.004Z,19.20
2018-05-10T20:51:39.167Z,19.10
2018-05-10T20:54:07.552Z,19.10
2018-05-10T20:56:35.949Z,19.00
2018-05-10T20:59:05.184Z,19.10
2018-05-10T21:01:33.598Z,19.10
2018-05-10T21:04:01.983Z,19.10
2018-05-10T21:06:30.396Z,19.10
2018-05-10T21:08:58.867Z,19.10
2018-05-10T21:11:28.119Z,19.00
2018-05-10T21:13:56.583Z,19.00
2018-05-10T21:16:25.378Z,19.10
2018-05-10T21:34:09.816Z,19.00
2018-05-10T21:36:42.669Z,19.00
2018-05-10T21:39:12.188Z,19.00
2018-05-10T21:41:40.709Z,18.90
2018-05-10T21:44:09.219Z,18.90
2018-05-10T21:46:37.745Z,18.90
2018-05-10T21:49:18.733Z,18.90
2018-05-10T21:51:47.409Z,18.80
2018-05-10T21:54:15.976Z,18.70
2018-05-10T21:56:50.191Z,18.70
2018-05-10T21:59:20.338Z,18.60
2018-05-10T22:01:50.667Z,18.50
2018-05-10T22:04:19.900Z,18.50
2018-05-10T22:06:48.475Z,18.40
2018-05-10T22:09:17.045Z,18.40
2018-05-10T22:11:45.505Z,18.40
2018-05-10T22:14:13.986Z,18.20
2018-05-10T22:16:42.536Z,18.20
2018-05-10T22:19:16.560Z,18.30
2018-05-10T22:21:50.600Z,18.30
2018-05-10T22:24:20.181Z,18.30
2018-05-10T22:26:48.766Z,18.20
2018-05-10T22:29:17.303Z,18.00
2018-05-10T22:31:46.249Z,18.00
2018-05-10T22:34:15.081Z,18.10
2018-05-10T22:36:43.929Z,18.10
2018-05-10T22:39:19.430Z,18.10
2018-05-10T22:41:50.084Z,18.00
2018-05-10T22:47:35.632Z,17.70
2018-05-10T22:50:09.718Z,17.70
2018-05-10T22:52:43.868Z,17.60
2018-05-10T22:55:18.470Z,17.70
2018-05-10T22:57:55.028Z,17.70
2018-05-10T23:00:28.981Z,17.60
2018-05-10T23:02:57.644Z,17.40
2018-05-10T23:05:34.369Z,17.50
2018-05-10T23:08:03.644Z,17.50
2018-05-10T23:10:32.914Z,17.50
2018-05-10T23:13:01.397Z,17.50
2018-05-10T23:15:29.977Z,17.50
2018-05-10T23:17:58.512Z,17.40
2018-05-10T23:20:27.948Z,17.30
2018-05-10T23:22:57.354Z,17.00
2018-05-10T23:25:44.261Z,16.90
2018-05-10T23:28:21.957Z,16.90
2018-05-10T23:30:57.497Z,16.60
2018-05-10T23:33:26.208Z,16.40
2018-05-10T23:35:54.744Z,16.20
2018-05-10T23:38:23.245Z,16.20
2018-05-10T23:40:52.575Z,16.20
2018-05-10T23:43:21.087Z,16.10
2018-05-10T23:45:49.925Z,16.00
2018-05-10T23:48:18.423Z,15.90
2018-05-10T23:50:46.884Z,15.90
2018-05-10T23:53:20.931Z,16.00
2018-05-10T23:55:54.847Z,15.90
2018-05-10T23:58:28.639Z,15.90
